x

Nickerson Bank (44251) Wave Buoy

4:00pm - Fri 24th Feb 2017 All times are UTC.

  • Sig Wave height 9.2ft
  • Peak Period 7s
  • Wind
    27mph, 31mph gusts
  • Sea Temp 30°f
  • Air Temp 37°f
  • Sea Pressure 1011mb

More Historic Weather Station data

Upgrade to MSW Pro to gain access to the past 30 days of data for over 8000 Wavebouys and Weather Stations around the globe.

Join Pro

Comparision Forecast

View Surf forecast
   
Fri 02/24 4:00pm 9ft 7s 27 31 mph 1011mb 30f 37f
3:00pm 9ft 7s 25 29 mph 1011.2mb 30f 37f
2:00pm 8.5ft 6s 29 36 mph 1010.5mb 30f 38f
1:00pm 7.5ft 12s 31 36 mph 1010.6mb 30f 38f
12:00pm 7ft 12s 31 38 mph 1010.8mb 30f 38f
11:00am 6.5ft 13s 29 34 mph 1012mb 30f 36f
10:00am 5.5ft 14s 22 29 mph 1013.2mb 30f 35f
9:00am 5ft 13s 22 25 mph 1014.4mb 30f 34f
8:00am 5ft 12s 20 22 mph 1015.2mb 30f 33f
7:00am 4.5ft 12s 18 20 mph 1015.6mb 30f 32f
6:00am 5ft 13s 16 18 mph 1015.8mb 30f 31f
5:00am 5ft 12s 16 18 mph 1015.8mb 30f 31f
4:00am 5ft 12s 13 16 mph 1015.4mb 30f 32f
3:00am 5ft 13s 9
mph
1015.3mb 30f 32f
2:00am 5ft 12s 9 11 mph 1015mb 30f 32f
1:00am 5ft 12s 11 13 mph 1015mb 30f 32f
12:00am 5ft 11s 7 9 mph 1014mb 30f 32f
Thu 02/23 11:00pm 5ft 11s 13 16 mph 1013.2mb 30f 32f
10:00pm 5ft 10s 11 13 mph 1012.2mb 30f 32f
9:00pm 5ft 10s 16 18 mph 1011mb 30f 32f
8:00pm 5ft 5s 16 20 mph 1010.1mb 30f 32f
7:00pm 5ft 11s 20 22 mph 1009.1mb 31f 32f
6:00pm 6ft 10s 18 22 mph 1008mb 30f 32f
5:00pm 5ft 8s 22 27 mph 1006.9mb 30f 31f
4:00pm 5ft 7s 22 25 mph 1006.2mb 30f 31f
3:00pm 5ft 7s 22 29 mph 1005.6mb 30f 31f
2:00pm 5ft 8s 25 29 mph 1005.1mb 30f 31f
1:00pm 5ft 7s 27 31 mph 1004.1mb 30f 31f
12:00pm 5ft 8s 20 22 mph 1003.6mb 30f 31f
11:00am 5ft 8s 22 25 mph 1003mb 30f 30f
10:00am 5ft 8s 20 25 mph 1002.3mb 30f 31f
Wed 02/22 10:00am 4.5ft 9s 18 25 mph 1019.4mb 31f 28f
9:00am 4.5ft 10s 18 22 mph 1019.2mb 31f 28f
8:00am 4.5ft 8s 20 25 mph 1018.8mb 31f 28f
7:00am 4.5ft 10s 22 25 mph 1018.7mb 31f 27f
6:00am 4.5ft 9s 18 22 mph 1019.2mb 31f 27f
5:00am 4.5ft 10s 18 22 mph 1019.7mb 31f 27f
4:00am 4.5ft 9s 18 22 mph 1019.7mb 31f 25f
3:00am 4.5ft 9s 16 18 mph 1020.4mb 31f 26f
2:00am 4.5ft 7s 16 20 mph 1020.7mb 31f 26f
1:00am 4.5ft 6s 16 20 mph 1020.9mb 31f 26f
12:00am 5ft 9s 18 20 mph 1019.9mb 31f 28f
Tue 02/21 11:00pm 5ft 10s 18 22 mph 1019.1mb 31f 29f
10:00pm  -   -  18
mph
- - -
9:00pm 5ft 9s 18 20 mph 1019.3mb 31f 31f
8:00pm 5ft 9s 16 20 mph 1019.1mb 31f 32f
7:00pm 5ft 10s 20 22 mph 1018.9mb 31f 32f
6:00pm 5ft 10s 18 25 mph 1018.6mb 31f 32f
5:00pm 5ft 8s 22 25 mph 1018.5mb 31f 31f
4:00pm 5ft 9s 18 22 mph 1018.5mb 31f 32f
3:00pm 5ft 9s 20 22 mph 1018mb 31f 31f
2:00pm 5ft 9s 18 25 mph 1018.1mb 31f 31f
1:00pm 5ft 10s 13 18 mph 1017.2mb 31f 31f
12:00pm 5ft 10s 18 20 mph 1016.3mb 31f 31f
11:00am 5ft 10s 22 29 mph 1015.3mb 31f 30f
9:00am 5ft 10s 20 25 mph 1014.5mb 31f 29f
8:00am 5.5ft 10s 18 22 mph 1014.3mb 31f 29f
7:00am 5.5ft 10s 20 25 mph 1014.4mb 31f 29f
6:00am 6ft 10s 20 25 mph 1014mb 31f 29f
5:00am 6.5ft 10s 20 22 mph 1014.3mb 31f 29f
4:00am 6ft 9s 20 25 mph 1014.3mb 31f 30f
3:00am 6.5ft 10s 22 27 mph 1013.6mb 31f 30f
2:00am 7ft 10s 20 27 mph 1013.3mb 31f 30f
1:00am 8ft 10s 20 25 mph 1013.4mb 31f 31f
12:00am 8ft 10s 22 27 mph 1013.1mb 31f 31f
Mon 02/20 10:00pm 8ft 10s 20 25 mph 1012.6mb 31f 31f
9:00pm 8ft 10s 2 4 mph 1012mb 31f 32f
8:00pm 8ft 9s 2 4 mph 1011.8mb 31f 32f
7:00pm 8ft 10s  -  2 mph 1011.5mb 31f 31f
6:00pm 7.5ft 10s 4
mph
1011.1mb 31f 31f